Terminal Aerodrome Forecast
Issued by NWS

Home | Current Version | Previous Version | Text Only | Print | Product List | Glossary Off
Versions: 1 2 3 4 5 6 7 8 9 10 11 12 13 14 15 16 17 18

044
FTUS43 KMPX 080520
TAFAXN
TAF
KAXN 080520Z 0806/0906 29020G27KT 1 1/2SM -SN BLSN OVC010
     FM081600 32018G23KT 6SM -SN OVC015
     FM090000 32013KT P6SM BKN020=

USA.gov is the U.S. government's official web portal to all federal, state and local government web resources and services.